createdAt,value
2023-05-11T00:00:13.496Z,29.36
2023-05-11T00:02:45.740Z,29.45
2023-05-11T00:05:14.459Z,29.77
2023-05-11T00:07:42.799Z,29.52
2023-05-11T00:10:12.488Z,29.63
2023-05-11T00:12:40.791Z,29.58
2023-05-11T00:15:10.271Z,29.75
2023-05-11T00:17:38.647Z,29.63
2023-05-11T00:20:10.527Z,29.65
2023-05-11T00:22:39.264Z,29.67
2023-05-11T00:25:09.010Z,29.71
2023-05-11T00:27:37.384Z,29.94
2023-05-11T00:30:07.422Z,30.16
2023-05-11T00:32:35.761Z,29.90
2023-05-11T00:35:04.133Z,29.71
2023-05-11T00:37:33.819Z,30.00
2023-05-11T00:40:02.278Z,29.95
2023-05-11T00:42:30.555Z,30.02
2023-05-11T00:44:59.533Z,30.24
2023-05-11T00:47:28.250Z,30.17
2023-05-11T00:49:56.890Z,30.37
2023-05-11T00:52:25.771Z,29.96
2023-05-11T00:54:55.649Z,30.31
2023-05-11T00:57:24.039Z,30.21
2023-05-11T00:59:52.411Z,30.22
2023-05-11T01:02:20.821Z,30.23
2023-05-11T01:04:49.238Z,30.33
2023-05-11T01:07:23.958Z,30.71
2023-05-11T01:10:04.538Z,30.57
2023-05-11T01:12:48.171Z,30.58
2023-05-11T01:15:26.145Z,30.68
2023-05-11T01:18:02.463Z,30.83
2023-05-11T01:20:31.995Z,30.80
2023-05-11T01:23:43.984Z,30.83
2023-05-11T01:26:40.096Z,30.77
2023-05-11T01:30:00.416Z,30.79
2023-05-11T01:32:35.743Z,31.02
2023-05-11T01:35:12.249Z,30.78
2023-05-11T01:37:47.153Z,30.93
2023-05-11T01:40:19.919Z,31.14
2023-05-11T01:42:51.702Z,31.04
2023-05-11T01:45:21.744Z,30.96
2023-05-11T01:47:53.798Z,31.21
2023-05-11T01:50:26.791Z,31.16
2023-05-11T01:52:56.144Z,31.04
2023-05-11T01:55:26.966Z,31.31
2023-05-11T01:57:57.034Z,31.30
2023-05-11T02:00:26.181Z,31.09
2023-05-11T02:02:57.938Z,31.31
2023-05-11T02:05:28.397Z,31.32
2023-05-11T02:07:59.258Z,31.37
2023-05-11T02:10:28.376Z,31.57
2023-05-11T02:12:57.628Z,31.67
2023-05-11T02:15:27.671Z,31.77
2023-05-11T02:17:58.088Z,31.58
2023-05-11T02:20:27.759Z,31.75
2023-05-11T02:22:57.599Z,31.98
2023-05-11T02:25:26.710Z,32.00
2023-05-11T02:27:55.278Z,32.04
2023-05-11T02:30:25.100Z,32.18
2023-05-11T02:32:56.463Z,31.97
2023-05-11T02:35:31.448Z,32.05
2023-05-11T02:38:04.436Z,32.09
2023-05-11T02:40:40.708Z,32.32
2023-05-11T02:43:12.382Z,32.30
2023-05-11T02:45:45.517Z,32.28
2023-05-11T02:48:23.948Z,32.24
2023-05-11T02:50:56.081Z,32.52
2023-05-11T02:53:28.741Z,32.46
2023-05-11T02:55:58.202Z,32.48
2023-05-11T02:58:26.792Z,32.49
2023-05-11T03:00:56.453Z,32.52
2023-05-11T03:03:25.712Z,32.58
2023-05-11T03:05:55.547Z,32.71
2023-05-11T03:08:23.903Z,32.59
2023-05-11T03:10:54.326Z,32.73
2023-05-11T03:13:25.972Z,32.93
2023-05-11T03:15:54.812Z,33.14
2023-05-11T03:18:24.480Z,32.90
2023-05-11T03:20:54.456Z,33.03
2023-05-11T03:23:23.482Z,33.12
2023-05-11T03:25:52.518Z,33.18
2023-05-11T03:28:23.746Z,33.17
2023-05-11T03:30:54.814Z,33.30
2023-05-11T03:33:23.356Z,33.20
2023-05-11T03:35:55.194Z,33.36
2023-05-11T03:38:25.301Z,33.22
2023-05-11T03:40:55.917Z,33.56
2023-05-11T03:43:26.534Z,33.43
2023-05-11T03:45:57.446Z,33.38
2023-05-11T03:48:25.993Z,33.39
2023-05-11T03:50:56.424Z,33.48
2023-05-11T03:53:25.681Z,33.39
2023-05-11T03:55:54.892Z,33.47
2023-05-11T03:58:24.136Z,33.30
2023-05-11T04:00:52.603Z,33.53
2023-05-11T04:03:21.209Z,33.42
2023-05-11T04:05:49.683Z,33.55
2023-05-11T04:08:19.370Z,33.71
2023-05-11T04:10:47.640Z,33.58
2023-05-11T04:13:16.023Z,33.56
2023-05-11T04:15:44.433Z,33.48
2023-05-11T04:18:12.982Z,33.46
2023-05-11T04:20:41.331Z,33.58
2023-05-11T04:23:10.514Z,33.58
2023-05-11T04:25:40.561Z,33.54
2023-05-11T04:28:09.054Z,33.43
2023-05-11T04:30:37.469Z,33.43
2023-05-11T04:33:06.305Z,33.60
2023-05-11T04:35:34.611Z,33.63
2023-05-11T04:38:02.971Z,33.71
2023-05-11T04:40:32.371Z,33.60
2023-05-11T04:43:03.611Z,33.60
2023-05-11T04:45:31.998Z,33.56
2023-05-11T04:48:00.452Z,33.59
2023-05-11T04:50:28.978Z,33.70
2023-05-11T04:52:57.357Z,33.51
2023-05-11T04:55:26.789Z,33.69
2023-05-11T04:57:55.184Z,33.67
2023-05-11T05:00:25.277Z,33.52
2023-05-11T05:02:53.759Z,33.63
2023-05-11T05:05:22.614Z,33.35
2023-05-11T05:07:51.009Z,33.45
2023-05-11T05:10:19.633Z,33.16
2023-05-11T05:12:48.122Z,33.13
2023-05-11T05:15:16.476Z,33.12
2023-05-11T05:17:46.169Z,32.98
2023-05-11T05:20:14.740Z,33.09
2023-05-11T05:22:43.045Z,33.09
2023-05-11T05:25:12.192Z,33.12
2023-05-11T05:27:40.515Z,33.17
2023-05-11T05:30:10.157Z,33.00
2023-05-11T05:32:38.598Z,33.07
2023-05-11T05:35:10.086Z,32.92
2023-05-11T05:37:38.545Z,32.91
2023-05-11T05:40:09.055Z,32.69
2023-05-11T05:42:37.476Z,32.90
2023-05-11T05:45:07.288Z,32.70
2023-05-11T05:47:35.572Z,32.54
2023-05-11T05:50:04.141Z,32.80
2023-05-11T05:52:33.862Z,32.70
2023-05-11T05:55:02.202Z,32.59
2023-05-11T05:57:31.156Z,32.72
2023-05-11T05:59:59.540Z,32.33
2023-05-11T06:02:28.056Z,32.25
2023-05-11T06:04:56.575Z,32.69
2023-05-11T06:07:25.152Z,32.58
2023-05-11T06:09:54.907Z,32.48
2023-05-11T06:12:23.271Z,32.09
2023-05-11T06:14:51.768Z,32.11
2023-05-11T06:17:20.103Z,32.12
2023-05-11T06:19:48.423Z,31.77
2023-05-11T06:22:16.833Z,31.79
2023-05-11T06:24:45.192Z,31.65
2023-05-11T06:27:17.392Z,31.32
2023-05-11T06:29:47.007Z,31.41
2023-05-11T06:32:15.781Z,31.22
2023-05-11T06:34:44.182Z,31.25
2023-05-11T06:37:16.193Z,30.80
2023-05-11T06:39:44.528Z,31.22
2023-05-11T06:42:14.311Z,31.19
2023-05-11T06:44:42.799Z,30.99
2023-05-11T06:47:11.307Z,30.73
2023-05-11T06:49:39.634Z,30.85
2023-05-11T06:52:08.844Z,30.65
2023-05-11T06:54:37.275Z,30.42
2023-05-11T06:57:05.766Z,30.43
2023-05-11T06:59:35.571Z,30.61
2023-05-11T07:02:03.927Z,30.71
2023-05-11T07:04:32.369Z,30.31
2023-05-11T07:07:00.886Z,30.13
2023-05-11T07:09:29.448Z,30.33
2023-05-11T07:11:58.221Z,29.94
2023-05-11T07:14:26.655Z,30.14
2023-05-11T07:16:56.503Z,29.79
2023-05-11T07:19:24.950Z,29.65
2023-05-11T07:21:53.593Z,29.60
2023-05-11T07:24:22.014Z,29.54
2023-05-11T07:26:51.056Z,29.42
2023-05-11T07:29:19.501Z,29.32
2023-05-11T07:31:48.416Z,29.18
2023-05-11T07:34:18.427Z,29.27
2023-05-11T07:36:47.060Z,28.97
2023-05-11T07:39:17.061Z,28.92
2023-05-11T07:41:45.575Z,28.89
2023-05-11T07:44:14.051Z,28.70
2023-05-11T07:46:42.725Z,28.59
2023-05-11T07:49:17.165Z,28.28
2023-05-11T07:51:48.628Z,28.25
2023-05-11T07:54:17.807Z,28.19
2023-05-11T07:56:47.782Z,28.19
2023-05-11T07:59:16.192Z,28.07
2023-05-11T08:01:44.643Z,27.90
2023-05-11T08:04:13.113Z,28.08
2023-05-11T08:06:41.540Z,28.03
2023-05-11T08:09:11.410Z,27.86
2023-05-11T08:11:39.896Z,27.82
2023-05-11T08:14:08.501Z,27.77
2023-05-11T08:16:37.581Z,27.88
2023-05-11T08:19:06.366Z,27.67
2023-05-11T08:21:34.859Z,27.69
2023-05-11T08:24:03.325Z,27.52
2023-05-11T08:26:33.517Z,27.66
2023-05-11T08:29:01.968Z,27.43
2023-05-11T08:31:30.410Z,27.54
2023-05-11T08:33:59.211Z,27.35
2023-05-11T08:36:27.765Z,27.51
2023-05-11T08:38:58.946Z,27.36
2023-05-11T08:41:28.035Z,27.14
2023-05-11T08:44:00.925Z,27.16
2023-05-11T08:46:36.286Z,26.85
2023-05-11T08:49:05.022Z,26.83
2023-05-11T08:51:34.141Z,26.54
2023-05-11T08:54:02.800Z,26.57
2023-05-11T08:56:31.923Z,26.46
2023-05-11T08:59:05.032Z,26.62
2023-05-11T09:01:35.857Z,26.66
2023-05-11T09:04:05.551Z,26.33
2023-05-11T09:06:35.141Z,26.47
2023-05-11T09:09:03.795Z,26.28
2023-05-11T09:11:32.946Z,26.03
2023-05-11T09:14:03.422Z,26.01
2023-05-11T09:16:37.352Z,25.29
2023-05-11T09:19:06.636Z,25.65
2023-05-11T09:21:35.363Z,25.23
2023-05-11T09:24:04.766Z,24.99
2023-05-11T09:26:35.459Z,25.14
2023-05-11T09:29:05.869Z,24.78
2023-05-11T09:31:40.200Z,24.89
2023-05-11T09:34:16.462Z,24.36
2023-05-11T09:36:46.036Z,24.49
2023-05-11T09:39:16.118Z,24.28
2023-05-11T09:41:45.494Z,24.05
2023-05-11T09:44:16.806Z,23.76
2023-05-11T09:46:47.569Z,23.53
2023-05-11T09:49:16.112Z,23.59
2023-05-11T09:51:44.677Z,23.57
2023-05-11T09:54:22.241Z,23.45
2023-05-11T09:56:54.364Z,23.39
2023-05-11T09:59:39.925Z,22.92
2023-05-11T10:02:23.761Z,23.11
2023-05-11T10:04:53.654Z,23.24
2023-05-11T10:07:30.090Z,22.83
2023-05-11T10:10:00.416Z,23.04
2023-05-11T10:12:30.602Z,22.62
2023-05-11T10:15:04.366Z,22.88
2023-05-11T10:17:33.475Z,22.63
2023-05-11T10:20:04.242Z,22.19
2023-05-11T10:22:33.633Z,22.45
2023-05-11T10:25:02.704Z,22.30
2023-05-11T10:27:32.867Z,21.98
2023-05-11T10:30:03.991Z,22.34
2023-05-11T10:32:37.399Z,22.19
2023-05-11T10:35:07.919Z,22.23
2023-05-11T10:37:36.856Z,21.97
2023-05-11T10:40:07.349Z,21.51
2023-05-11T10:43:23.141Z,21.60
2023-05-11T10:46:00.452Z,21.42
2023-05-11T10:48:54.104Z,22.01
2023-05-11T10:51:57.429Z,21.86
2023-05-11T10:54:50.486Z,21.53
2023-05-11T10:57:39.291Z,21.71
2023-05-11T11:00:57.866Z,21.59
2023-05-11T11:03:28.156Z,21.74
2023-05-11T11:05:57.581Z,21.15
2023-05-11T11:08:28.609Z,21.05
2023-05-11T11:10:57.503Z,21.23
2023-05-11T11:13:25.975Z,21.39
2023-05-11T11:16:16.629Z,21.47
2023-05-11T11:18:47.628Z,21.44
2023-05-11T11:21:43.206Z,21.41
2023-05-11T11:24:45.380Z,21.69
2023-05-11T11:27:14.233Z,21.13
2023-05-11T11:29:42.860Z,21.30
2023-05-11T11:32:27.503Z,21.42
2023-05-11T11:34:57.385Z,21.08
2023-05-11T11:37:26.029Z,21.03
2023-05-11T11:40:08.895Z,20.54
2023-05-11T11:42:44.245Z,20.36
2023-05-11T11:45:31.162Z,20.25
2023-05-11T11:48:17.176Z,20.15
2023-05-11T11:50:49.545Z,19.86
2023-05-11T11:54:01.074Z,20.06
2023-05-11T11:56:41.045Z,19.54
2023-05-11T11:59:13.909Z,19.47
2023-05-11T12:01:45.480Z,19.25
2023-05-11T12:04:42.036Z,19.35
2023-05-11T12:07:12.052Z,19.06
2023-05-11T12:09:42.246Z,18.44
2023-05-11T12:12:12.017Z,18.20
2023-05-11T12:14:44.769Z,18.03
2023-05-11T12:17:16.488Z,17.59
2023-05-11T12:19:45.819Z,16.97
2023-05-11T12:22:16.495Z,17.18
2023-05-11T12:24:45.212Z,17.32
2023-05-11T12:27:14.292Z,17.27
2023-05-11T12:29:45.995Z,17.33
2023-05-11T12:32:15.164Z,17.76
2023-05-11T12:34:43.735Z,17.55
2023-05-11T12:37:12.543Z,17.46
2023-05-11T12:39:42.483Z,17.70
2023-05-11T12:42:19.691Z,17.83
2023-05-11T12:44:48.592Z,18.04
2023-05-11T12:47:17.760Z,18.08
2023-05-11T12:49:46.823Z,18.12
2023-05-11T12:52:15.545Z,17.92
2023-05-11T12:54:52.375Z,17.60
2023-05-11T12:57:29.290Z,17.79
2023-05-11T13:00:13.173Z,17.29
2023-05-11T13:02:52.200Z,17.43
2023-05-11T13:05:25.825Z,17.49
2023-05-11T13:08:00.156Z,17.36
2023-05-11T13:10:30.592Z,17.47
2023-05-11T13:12:59.409Z,17.33
2023-05-11T13:15:28.689Z,17.14
2023-05-11T13:17:59.131Z,17.25
2023-05-11T13:20:29.669Z,17.12
2023-05-11T13:23:06.820Z,16.98
2023-05-11T13:25:53.327Z,16.75
2023-05-11T13:28:25.263Z,16.70
2023-05-11T13:31:00.423Z,16.70
2023-05-11T13:33:29.116Z,16.60
2023-05-11T13:35:57.524Z,16.95
2023-05-11T13:38:25.908Z,16.51
2023-05-11T13:40:55.713Z,16.76
2023-05-11T13:43:24.115Z,16.70
2023-05-11T13:45:52.645Z,15.89
2023-05-11T13:48:21.139Z,15.84
2023-05-11T13:50:49.486Z,15.71
2023-05-11T13:53:17.997Z,15.15
2023-05-11T13:55:46.401Z,14.91
2023-05-11T13:58:17.509Z,14.95
2023-05-11T14:00:56.438Z,15.17
2023-05-11T14:03:33.461Z,15.07
2023-05-11T14:06:02.082Z,15.24
2023-05-11T14:08:30.395Z,15.16
2023-05-11T14:10:58.697Z,15.56
2023-05-11T14:13:28.476Z,15.86
2023-05-11T14:15:57.850Z,15.74
2023-05-11T14:18:26.638Z,15.99
2023-05-11T14:20:55.489Z,15.84
2023-05-11T14:23:23.935Z,16.10
2023-05-11T14:25:52.288Z,16.26
2023-05-11T14:28:20.985Z,16.35
2023-05-11T14:30:50.894Z,16.65
2023-05-11T14:33:19.304Z,16.71
2023-05-11T14:35:50.128Z,16.88
2023-05-11T14:38:18.649Z,16.97
2023-05-11T14:40:47.439Z,16.88
2023-05-11T14:43:16.085Z,17.12
2023-05-11T14:45:46.172Z,17.29
2023-05-11T14:48:15.857Z,17.34
2023-05-11T14:50:44.212Z,17.10
2023-05-11T14:53:13.918Z,17.35
2023-05-11T14:55:42.423Z,17.18
2023-05-11T14:58:11.153Z,17.48
2023-05-11T15:00:40.488Z,17.59
2023-05-11T15:03:10.766Z,17.61
2023-05-11T15:05:41.502Z,17.88
2023-05-11T15:08:21.729Z,17.65
2023-05-11T15:10:54.408Z,17.79
2023-05-11T15:13:23.364Z,18.05
2023-05-11T15:15:52.159Z,17.61
2023-05-11T15:18:20.804Z,17.82
2023-05-11T15:20:50.623Z,17.95
2023-05-11T15:23:19.028Z,17.74
2023-05-11T15:25:48.557Z,17.56
2023-05-11T15:28:17.346Z,17.82
2023-05-11T15:30:45.678Z,17.68
2023-05-11T15:33:14.093Z,17.44
2023-05-11T15:35:42.563Z,17.68
2023-05-11T15:38:12.291Z,18.00
2023-05-11T15:40:40.710Z,17.98
2023-05-11T15:43:09.435Z,17.81
2023-05-11T15:45:37.912Z,17.97
2023-05-11T15:48:07.545Z,17.83
2023-05-11T15:50:36.143Z,18.31
2023-05-11T15:53:04.543Z,18.09
2023-05-11T15:55:34.504Z,18.73
2023-05-11T15:58:02.910Z,18.76
2023-05-11T16:00:31.443Z,18.92
2023-05-11T16:02:59.874Z,18.96
2023-05-11T16:05:29.795Z,18.44
2023-05-11T16:07:58.178Z,18.48
2023-05-11T16:10:26.648Z,18.78
2023-05-11T16:12:58.254Z,18.79
2023-05-11T16:15:27.459Z,18.97
2023-05-11T16:17:55.805Z,19.11
2023-05-11T16:20:24.420Z,19.22
2023-05-11T16:22:52.814Z,18.85
2023-05-11T16:25:21.256Z,19.08
2023-05-11T16:27:49.656Z,19.41
2023-05-11T16:30:24.823Z,19.36
2023-05-11T16:32:54.513Z,19.31
2023-05-11T16:35:23.177Z,19.31
2023-05-11T16:37:51.620Z,19.78
2023-05-11T16:40:21.500Z,19.86
2023-05-11T16:42:50.107Z,19.52
2023-05-11T16:45:20.035Z,19.98
2023-05-11T16:47:49.341Z,19.99
2023-05-11T16:50:18.896Z,19.93
2023-05-11T16:52:48.776Z,19.66
2023-05-11T16:55:17.555Z,19.81
2023-05-11T16:57:46.037Z,19.66
2023-05-11T17:00:16.253Z,19.75
2023-05-11T17:02:46.327Z,19.89
2023-05-11T17:05:18.041Z,19.87
2023-05-11T17:07:46.834Z,19.95
2023-05-11T17:10:15.413Z,20.16
2023-05-11T17:12:43.835Z,20.07
2023-05-11T17:15:12.673Z,20.20
2023-05-11T17:17:41.288Z,20.03
2023-05-11T17:20:12.860Z,20.54
2023-05-11T17:22:41.226Z,20.41
2023-05-11T17:25:10.838Z,20.49
2023-05-11T17:27:39.284Z,20.54
2023-05-11T17:30:09.770Z,20.46
2023-05-11T17:32:38.205Z,20.65
2023-05-11T17:35:08.210Z,20.55
2023-05-11T17:37:37.942Z,20.53
2023-05-11T17:40:09.440Z,20.57
2023-05-11T17:42:38.810Z,20.47
2023-05-11T17:45:11.977Z,20.57
2023-05-11T17:47:40.490Z,20.59
2023-05-11T17:50:10.269Z,20.75
2023-05-11T17:52:39.954Z,20.80
2023-05-11T17:55:10.933Z,20.87
2023-05-11T17:57:39.570Z,20.86
2023-05-11T18:00:10.950Z,20.83
2023-05-11T18:02:39.632Z,20.76
2023-05-11T18:05:09.168Z,20.81
2023-05-11T18:07:38.942Z,20.93
2023-05-11T18:10:09.296Z,21.01
2023-05-11T18:12:37.640Z,21.10
2023-05-11T18:15:07.292Z,21.41
2023-05-11T18:17:35.662Z,22.49
2023-05-11T18:20:05.311Z,23.60
2023-05-11T18:22:34.435Z,23.98
2023-05-11T18:25:04.360Z,25.01
2023-05-11T18:27:32.738Z,25.55
2023-05-11T18:30:01.924Z,25.78
2023-05-11T18:32:30.301Z,26.57
2023-05-11T18:34:58.886Z,27.64
2023-05-11T18:37:27.185Z,27.70
2023-05-11T18:39:56.864Z,28.58
2023-05-11T18:42:26.911Z,29.09
2023-05-11T18:44:56.918Z,29.33
2023-05-11T18:47:25.726Z,29.50
2023-05-11T18:49:55.426Z,29.73
2023-05-11T18:52:24.035Z,30.18
2023-05-11T18:54:52.465Z,31.20
2023-05-11T18:57:21.341Z,31.55
2023-05-11T18:59:52.586Z,31.87
2023-05-11T19:02:20.966Z,32.50
2023-05-11T19:04:49.867Z,32.22
2023-05-11T19:07:20.271Z,32.56
2023-05-11T19:09:48.891Z,32.65
2023-05-11T19:12:19.812Z,32.94
2023-05-11T19:14:48.321Z,32.83
2023-05-11T19:17:18.873Z,32.75
2023-05-11T19:19:47.331Z,32.97
2023-05-11T19:22:17.112Z,32.63
2023-05-11T19:24:45.917Z,32.89
2023-05-11T19:27:16.009Z,33.08
2023-05-11T19:29:45.265Z,33.08
2023-05-11T19:32:15.113Z,33.28
2023-05-11T19:34:46.067Z,33.46
2023-05-11T19:37:15.090Z,33.35
2023-05-11T19:39:44.488Z,33.92
2023-05-11T19:42:13.827Z,34.29
2023-05-11T19:44:43.671Z,34.07
2023-05-11T19:47:12.720Z,34.29
2023-05-11T19:49:41.943Z,34.46
2023-05-11T19:52:11.845Z,34.62
2023-05-11T19:54:40.322Z,34.88
2023-05-11T19:57:08.696Z,35.08
2023-05-11T19:59:37.406Z,35.17
2023-05-11T20:02:06.366Z,35.28
2023-05-11T20:04:35.411Z,35.79
2023-05-11T20:07:03.950Z,36.06
2023-05-11T20:09:33.667Z,36.57
2023-05-11T20:12:02.091Z,36.49
2023-05-11T20:14:30.652Z,36.49
2023-05-11T20:16:58.996Z,36.49
2023-05-11T20:19:27.448Z,36.59
2023-05-11T20:21:55.732Z,36.68
2023-05-11T20:24:24.144Z,36.89
2023-05-11T20:26:53.941Z,37.06
2023-05-11T20:29:22.390Z,37.15
2023-05-11T20:31:50.974Z,37.57
2023-05-11T20:34:19.401Z,37.72
2023-05-11T20:36:48.824Z,38.01
2023-05-11T20:39:17.391Z,38.23
2023-05-11T20:41:45.782Z,38.39
2023-05-11T20:44:15.548Z,38.55
2023-05-11T20:46:44.420Z,38.50
2023-05-11T20:49:22.291Z,38.66
2023-05-11T20:51:56.138Z,38.71
2023-05-11T20:54:24.874Z,39.21
2023-05-11T20:56:53.238Z,39.05
2023-05-11T21:01:54.770Z,39.09
2023-05-11T21:04:23.078Z,39.11
2023-05-11T21:06:56.415Z,39.34
2023-05-11T21:09:25.292Z,39.22
2023-05-11T21:11:53.685Z,39.39
2023-05-11T21:14:23.424Z,39.48
2023-05-11T21:16:51.796Z,39.32
2023-05-11T21:19:20.216Z,39.42
2023-05-11T21:21:49.736Z,39.38
2023-05-11T21:24:18.276Z,39.57
2023-05-11T21:26:48.123Z,39.45
2023-05-11T21:29:16.654Z,39.37
2023-05-11T21:31:46.454Z,39.54
2023-05-11T21:34:14.973Z,39.38
2023-05-11T21:36:45.566Z,39.51
2023-05-11T21:39:14.221Z,39.51
2023-05-11T21:41:42.538Z,39.53
2023-05-11T21:44:10.908Z,39.58
2023-05-11T21:46:39.453Z,39.67
2023-05-11T21:49:09.234Z,39.69
2023-05-11T21:51:37.594Z,39.91
2023-05-11T21:54:06.365Z,40.04
2023-05-11T21:56:34.724Z,40.16
2023-05-11T21:59:03.099Z,40.13
2023-05-11T22:01:31.511Z,40.02
2023-05-11T22:04:01.153Z,40.06
2023-05-11T22:06:30.948Z,40.13
2023-05-11T22:08:59.320Z,40.18
2023-05-11T22:11:27.904Z,40.21
2023-05-11T22:13:56.237Z,40.18
2023-05-11T22:16:24.627Z,40.18
2023-05-11T22:18:53.027Z,40.25
2023-05-11T22:21:21.402Z,40.31
2023-05-11T22:23:51.227Z,40.39
2023-05-11T22:26:19.616Z,40.54
2023-05-11T22:28:48.183Z,40.51
2023-05-11T22:31:16.659Z,40.35
2023-05-11T22:33:45.115Z,40.47
2023-05-11T22:36:13.823Z,40.50
2023-05-11T22:38:42.215Z,40.44
2023-05-11T22:41:11.940Z,40.52
2023-05-11T22:43:40.350Z,40.76
2023-05-11T22:46:09.177Z,40.54
2023-05-11T22:48:37.590Z,40.63
2023-05-11T22:51:07.756Z,40.57
2023-05-11T22:53:36.133Z,40.45
2023-05-11T22:56:05.669Z,40.59
2023-05-11T22:58:35.501Z,40.64
2023-05-11T23:01:03.974Z,40.72
2023-05-11T23:03:32.387Z,40.61
2023-05-11T23:06:00.741Z,40.70
2023-05-11T23:08:29.001Z,40.61
2023-05-11T23:10:57.339Z,40.55
2023-05-11T23:13:26.437Z,40.69
2023-05-11T23:15:56.056Z,40.67
2023-05-11T23:18:24.609Z,40.67
2023-05-11T23:20:57.533Z,40.82
2023-05-11T23:23:26.329Z,40.76
2023-05-11T23:25:54.848Z,40.82
2023-05-11T23:28:23.260Z,40.89
2023-05-11T23:30:51.632Z,40.86
2023-05-11T23:33:21.379Z,40.88
2023-05-11T23:35:49.737Z,40.79
2023-05-11T23:38:18.222Z,40.89
2023-05-11T23:40:46.566Z,40.85
2023-05-11T23:43:14.914Z,40.77
2023-05-11T23:45:43.278Z,41.04
2023-05-11T23:48:11.836Z,40.96
2023-05-11T23:50:41.555Z,41.09
2023-05-11T23:53:09.864Z,41.14
2023-05-11T23:55:38.682Z,41.01
2023-05-11T23:58:06.978Z,40.98
